sensor_id;sensor_type;location;lat;lon;timestamp;P1;durP1;ratioP1;P2;durP2;ratioP2
79644;SDS011;69117;47.148;18.954;2024-03-02T00:02:22;10.48;;;5.22;;
79644;SDS011;69117;47.148;18.954;2024-03-02T00:05:23;25.35;;;5.85;;
79644;SDS011;69117;47.148;18.954;2024-03-02T00:08:25;14.02;;;7.05;;
79644;SDS011;69117;47.148;18.954;2024-03-02T00:11:27;14.63;;;5.72;;
79644;SDS011;69117;47.148;18.954;2024-03-02T00:14:29;14.00;;;6.53;;
79644;SDS011;69117;47.148;18.954;2024-03-02T00:17:31;10.60;;;5.53;;
79644;SDS011;69117;47.148;18.954;2024-03-02T00:20:33;8.85;;;4.75;;
79644;SDS011;69117;47.148;18.954;2024-03-02T00:23:36;11.02;;;5.78;;
79644;SDS011;69117;47.148;18.954;2024-03-02T00:26:38;11.52;;;6.25;;
79644;SDS011;69117;47.148;18.954;2024-03-02T00:29:40;9.57;;;4.80;;
79644;SDS011;69117;47.148;18.954;2024-03-02T00:32:44;13.82;;;6.00;;
79644;SDS011;69117;47.148;18.954;2024-03-02T00:35:45;13.48;;;6.90;;
79644;SDS011;69117;47.148;18.954;2024-03-02T00:38:47;8.48;;;5.10;;
79644;SDS011;69117;47.148;18.954;2024-03-02T00:41:51;8.95;;;5.40;;
79644;SDS011;69117;47.148;18.954;2024-03-02T00:44:52;12.65;;;5.00;;
79644;SDS011;69117;47.148;18.954;2024-03-02T00:47:54;12.90;;;6.18;;
79644;SDS011;69117;47.148;18.954;2024-03-02T00:50:56;11.02;;;5.82;;
79644;SDS011;69117;47.148;18.954;2024-03-02T00:54:01;12.52;;;5.35;;
79644;SDS011;69117;47.148;18.954;2024-03-02T00:57:06;11.85;;;5.10;;
79644;SDS011;69117;47.148;18.954;2024-03-02T01:00:13;10.05;;;5.05;;
79644;SDS011;69117;47.148;18.954;2024-03-02T01:03:16;12.73;;;6.00;;
79644;SDS011;69117;47.148;18.954;2024-03-02T01:06:18;10.73;;;4.95;;
79644;SDS011;69117;47.148;18.954;2024-03-02T01:09:20;9.85;;;4.88;;
79644;SDS011;69117;47.148;18.954;2024-03-02T01:12:22;11.93;;;6.18;;
79644;SDS011;69117;47.148;18.954;2024-03-02T01:15:24;9.27;;;5.50;;
79644;SDS011;69117;47.148;18.954;2024-03-02T01:18:25;8.63;;;4.93;;
79644;SDS011;69117;47.148;18.954;2024-03-02T01:21:27;14.13;;;5.10;;
79644;SDS011;69117;47.148;18.954;2024-03-02T01:24:32;11.80;;;5.07;;
79644;SDS011;69117;47.148;18.954;2024-03-02T01:27:33;11.13;;;6.13;;
79644;SDS011;69117;47.148;18.954;2024-03-02T01:30:35;11.40;;;5.20;;
79644;SDS011;69117;47.148;18.954;2024-03-02T01:33:37;13.57;;;5.43;;
79644;SDS011;69117;47.148;18.954;2024-03-02T01:36:39;8.85;;;5.05;;
79644;SDS011;69117;47.148;18.954;2024-03-02T01:39:41;9.05;;;4.40;;
79644;SDS011;69117;47.148;18.954;2024-03-02T01:42:43;8.82;;;4.43;;
79644;SDS011;69117;47.148;18.954;2024-03-02T01:45:44;10.35;;;4.90;;
79644;SDS011;69117;47.148;18.954;2024-03-02T01:48:46;9.95;;;5.18;;
79644;SDS011;69117;47.148;18.954;2024-03-02T01:51:49;11.55;;;5.25;;
79644;SDS011;69117;47.148;18.954;2024-03-02T01:54:51;9.23;;;4.28;;
79644;SDS011;69117;47.148;18.954;2024-03-02T01:57:52;9.55;;;5.72;;
79644;SDS011;69117;47.148;18.954;2024-03-02T02:00:55;14.65;;;5.32;;
79644;SDS011;69117;47.148;18.954;2024-03-02T02:03:57;22.60;;;6.38;;
79644;SDS011;69117;47.148;18.954;2024-03-02T02:06:59;11.52;;;5.03;;
79644;SDS011;69117;47.148;18.954;2024-03-02T02:10:01;9.75;;;5.63;;
79644;SDS011;69117;47.148;18.954;2024-03-02T02:13:03;14.52;;;5.53;;
79644;SDS011;69117;47.148;18.954;2024-03-02T02:16:06;13.85;;;5.40;;
79644;SDS011;69117;47.148;18.954;2024-03-02T02:19:10;10.27;;;5.25;;
79644;SDS011;69117;47.148;18.954;2024-03-02T02:22:12;11.63;;;6.60;;
79644;SDS011;69117;47.148;18.954;2024-03-02T02:25:14;9.60;;;5.60;;
79644;SDS011;69117;47.148;18.954;2024-03-02T02:28:15;11.80;;;5.55;;
79644;SDS011;69117;47.148;18.954;2024-03-02T02:31:18;16.02;;;6.20;;
79644;SDS011;69117;47.148;18.954;2024-03-02T02:34:20;10.93;;;6.15;;
79644;SDS011;69117;47.148;18.954;2024-03-02T02:37:21;11.50;;;6.20;;
79644;SDS011;69117;47.148;18.954;2024-03-02T02:40:23;12.65;;;5.65;;
79644;SDS011;69117;47.148;18.954;2024-03-02T02:43:25;11.90;;;5.97;;
79644;SDS011;69117;47.148;18.954;2024-03-02T02:46:26;13.30;;;6.20;;
79644;SDS011;69117;47.148;18.954;2024-03-02T02:49:28;11.48;;;5.57;;
79644;SDS011;69117;47.148;18.954;2024-03-02T02:52:33;11.85;;;5.60;;
79644;SDS011;69117;47.148;18.954;2024-03-02T02:55:39;11.60;;;6.10;;
79644;SDS011;69117;47.148;18.954;2024-03-02T02:58:41;8.48;;;5.60;;
79644;SDS011;69117;47.148;18.954;2024-03-02T03:01:43;11.57;;;4.95;;
79644;SDS011;69117;47.148;18.954;2024-03-02T03:04:45;11.25;;;5.22;;
79644;SDS011;69117;47.148;18.954;2024-03-02T03:07:47;13.25;;;6.07;;
79644;SDS011;69117;47.148;18.954;2024-03-02T03:10:51;12.80;;;6.38;;
79644;SDS011;69117;47.148;18.954;2024-03-02T03:13:53;12.10;;;6.50;;
79644;SDS011;69117;47.148;18.954;2024-03-02T03:16:55;12.55;;;6.10;;
79644;SDS011;69117;47.148;18.954;2024-03-02T03:19:57;17.77;;;7.22;;
79644;SDS011;69117;47.148;18.954;2024-03-02T03:22:59;11.02;;;5.53;;
79644;SDS011;69117;47.148;18.954;2024-03-02T03:26:01;12.52;;;6.18;;
79644;SDS011;69117;47.148;18.954;2024-03-02T03:29:03;12.07;;;6.57;;
79644;SDS011;69117;47.148;18.954;2024-03-02T03:32:05;9.93;;;5.53;;
79644;SDS011;69117;47.148;18.954;2024-03-02T03:35:08;14.35;;;6.57;;
79644;SDS011;69117;47.148;18.954;2024-03-02T03:38:10;9.85;;;5.40;;
79644;SDS011;69117;47.148;18.954;2024-03-02T03:41:12;11.32;;;5.50;;
79644;SDS011;69117;47.148;18.954;2024-03-02T03:44:14;15.05;;;6.35;;
79644;SDS011;69117;47.148;18.954;2024-03-02T03:47:16;12.25;;;6.18;;
79644;SDS011;69117;47.148;18.954;2024-03-02T03:50:17;13.57;;;6.45;;
79644;SDS011;69117;47.148;18.954;2024-03-02T03:53:19;15.90;;;6.25;;
79644;SDS011;69117;47.148;18.954;2024-03-02T03:56:21;17.33;;;7.18;;
79644;SDS011;69117;47.148;18.954;2024-03-02T03:59:22;13.77;;;7.03;;
79644;SDS011;69117;47.148;18.954;2024-03-02T04:02:25;16.92;;;7.22;;
79644;SDS011;69117;47.148;18.954;2024-03-02T04:05:26;11.60;;;5.75;;
79644;SDS011;69117;47.148;18.954;2024-03-02T04:08:28;14.00;;;6.95;;
79644;SDS011;69117;47.148;18.954;2024-03-02T04:11:30;12.80;;;7.03;;
79644;SDS011;69117;47.148;18.954;2024-03-02T04:14:32;13.45;;;7.60;;
79644;SDS011;69117;47.148;18.954;2024-03-02T04:17:34;12.80;;;5.93;;
79644;SDS011;69117;47.148;18.954;2024-03-02T04:20:37;12.35;;;6.45;;
79644;SDS011;69117;47.148;18.954;2024-03-02T04:23:38;11.23;;;5.65;;
79644;SDS011;69117;47.148;18.954;2024-03-02T04:26:40;10.45;;;5.38;;
79644;SDS011;69117;47.148;18.954;2024-03-02T04:29:42;20.67;;;7.85;;
79644;SDS011;69117;47.148;18.954;2024-03-02T04:32:43;15.32;;;6.53;;
79644;SDS011;69117;47.148;18.954;2024-03-02T04:35:47;13.73;;;6.68;;
79644;SDS011;69117;47.148;18.954;2024-03-02T04:38:49;15.23;;;7.70;;
79644;SDS011;69117;47.148;18.954;2024-03-02T04:41:51;19.67;;;9.00;;
79644;SDS011;69117;47.148;18.954;2024-03-02T04:44:52;16.17;;;7.35;;
79644;SDS011;69117;47.148;18.954;2024-03-02T04:47:54;16.98;;;8.80;;
79644;SDS011;69117;47.148;18.954;2024-03-02T04:50:56;12.82;;;7.25;;
79644;SDS011;69117;47.148;18.954;2024-03-02T04:53:57;15.10;;;7.68;;
79644;SDS011;69117;47.148;18.954;2024-03-02T04:56:59;24.25;;;7.78;;
79644;SDS011;69117;47.148;18.954;2024-03-02T05:00:01;13.90;;;7.18;;
79644;SDS011;69117;47.148;18.954;2024-03-02T05:03:03;20.55;;;9.63;;
79644;SDS011;69117;47.148;18.954;2024-03-02T05:06:04;11.20;;;6.15;;
79644;SDS011;69117;47.148;18.954;2024-03-02T05:09:07;13.27;;;7.35;;
79644;SDS011;69117;47.148;18.954;2024-03-02T05:12:09;18.10;;;8.23;;
79644;SDS011;69117;47.148;18.954;2024-03-02T05:15:17;12.93;;;6.85;;
79644;SDS011;69117;47.148;18.954;2024-03-02T05:18:19;17.83;;;7.55;;
79644;SDS011;69117;47.148;18.954;2024-03-02T05:21:20;16.77;;;8.55;;
79644;SDS011;69117;47.148;18.954;2024-03-02T05:24:22;16.00;;;6.75;;
79644;SDS011;69117;47.148;18.954;2024-03-02T05:27:24;17.90;;;8.35;;
79644;SDS011;69117;47.148;18.954;2024-03-02T05:30:25;18.30;;;7.80;;
79644;SDS011;69117;47.148;18.954;2024-03-02T05:33:27;11.23;;;6.93;;
79644;SDS011;69117;47.148;18.954;2024-03-02T05:36:30;18.98;;;8.32;;
79644;SDS011;69117;47.148;18.954;2024-03-02T05:39:31;16.65;;;8.60;;
79644;SDS011;69117;47.148;18.954;2024-03-02T05:42:33;16.65;;;9.00;;
79644;SDS011;69117;47.148;18.954;2024-03-02T05:45:35;13.88;;;7.43;;
79644;SDS011;69117;47.148;18.954;2024-03-02T05:48:37;13.52;;;6.63;;
79644;SDS011;69117;47.148;18.954;2024-03-02T05:51:39;16.08;;;7.05;;
79644;SDS011;69117;47.148;18.954;2024-03-02T05:54:41;15.52;;;7.15;;
79644;SDS011;69117;47.148;18.954;2024-03-02T05:57:43;14.65;;;6.88;;
79644;SDS011;69117;47.148;18.954;2024-03-02T06:00:44;19.35;;;7.55;;
79644;SDS011;69117;47.148;18.954;2024-03-02T06:03:46;16.00;;;7.07;;
79644;SDS011;69117;47.148;18.954;2024-03-02T06:06:48;15.25;;;7.30;;
79644;SDS011;69117;47.148;18.954;2024-03-02T06:09:51;17.63;;;7.57;;
79644;SDS011;69117;47.148;18.954;2024-03-02T06:12:53;10.80;;;6.05;;
79644;SDS011;69117;47.148;18.954;2024-03-02T06:15:55;19.08;;;7.63;;
79644;SDS011;69117;47.148;18.954;2024-03-02T06:18:57;17.77;;;8.13;;
79644;SDS011;69117;47.148;18.954;2024-03-02T06:22:02;12.75;;;8.23;;
79644;SDS011;69117;47.148;18.954;2024-03-02T06:25:03;18.50;;;8.77;;
79644;SDS011;69117;47.148;18.954;2024-03-02T06:28:05;14.55;;;8.23;;
79644;SDS011;69117;47.148;18.954;2024-03-02T06:31:08;12.57;;;7.18;;
79644;SDS011;69117;47.148;18.954;2024-03-02T06:34:11;17.75;;;8.85;;
79644;SDS011;69117;47.148;18.954;2024-03-02T06:37:12;16.10;;;8.70;;
79644;SDS011;69117;47.148;18.954;2024-03-02T06:40:14;17.20;;;7.55;;
79644;SDS011;69117;47.148;18.954;2024-03-02T06:43:16;21.67;;;9.73;;
79644;SDS011;69117;47.148;18.954;2024-03-02T06:46:18;20.73;;;9.02;;
79644;SDS011;69117;47.148;18.954;2024-03-02T06:49:19;19.02;;;10.48;;
79644;SDS011;69117;47.148;18.954;2024-03-02T06:52:21;17.88;;;8.05;;
79644;SDS011;69117;47.148;18.954;2024-03-02T06:55:25;17.70;;;8.32;;
79644;SDS011;69117;47.148;18.954;2024-03-02T06:58:27;16.17;;;7.47;;
79644;SDS011;69117;47.148;18.954;2024-03-02T07:01:29;21.67;;;9.45;;
79644;SDS011;69117;47.148;18.954;2024-03-02T07:04:30;18.65;;;10.18;;
79644;SDS011;69117;47.148;18.954;2024-03-02T07:07:32;16.42;;;8.27;;
79644;SDS011;69117;47.148;18.954;2024-03-02T07:10:34;18.20;;;8.68;;
79644;SDS011;69117;47.148;18.954;2024-03-02T07:13:36;16.33;;;8.10;;
79644;SDS011;69117;47.148;18.954;2024-03-02T07:16:37;18.88;;;7.97;;
79644;SDS011;69117;47.148;18.954;2024-03-02T07:19:41;13.63;;;7.50;;
79644;SDS011;69117;47.148;18.954;2024-03-02T07:22:42;15.05;;;7.53;;
79644;SDS011;69117;47.148;18.954;2024-03-02T07:25:45;12.82;;;7.60;;
79644;SDS011;69117;47.148;18.954;2024-03-02T07:28:50;20.55;;;9.48;;
79644;SDS011;69117;47.148;18.954;2024-03-02T07:31:52;20.15;;;9.50;;
79644;SDS011;69117;47.148;18.954;2024-03-02T07:34:54;16.30;;;8.13;;
79644;SDS011;69117;47.148;18.954;2024-03-02T07:37:57;21.48;;;8.20;;
79644;SDS011;69117;47.148;18.954;2024-03-02T07:40:58;14.85;;;7.38;;
79644;SDS011;69117;47.148;18.954;2024-03-02T07:44:01;15.85;;;6.85;;
79644;SDS011;69117;47.148;18.954;2024-03-02T07:47:03;15.32;;;8.32;;
79644;SDS011;69117;47.148;18.954;2024-03-02T07:50:05;16.85;;;8.48;;
79644;SDS011;69117;47.148;18.954;2024-03-02T07:53:10;18.80;;;7.95;;
79644;SDS011;69117;47.148;18.954;2024-03-02T07:56:12;16.38;;;8.20;;
79644;SDS011;69117;47.148;18.954;2024-03-02T07:59:14;14.38;;;7.30;;
79644;SDS011;69117;47.148;18.954;2024-03-02T08:02:16;18.05;;;9.00;;
79644;SDS011;69117;47.148;18.954;2024-03-02T08:05:17;13.57;;;7.28;;
79644;SDS011;69117;47.148;18.954;2024-03-02T08:08:20;15.23;;;7.00;;
79644;SDS011;69117;47.148;18.954;2024-03-02T08:11:22;22.27;;;9.23;;
79644;SDS011;69117;47.148;18.954;2024-03-02T08:14:24;10.75;;;6.20;;
79644;SDS011;69117;47.148;18.954;2024-03-02T08:17:25;14.35;;;7.22;;
79644;SDS011;69117;47.148;18.954;2024-03-02T08:20:27;18.63;;;8.57;;
79644;SDS011;69117;47.148;18.954;2024-03-02T08:23:29;15.00;;;6.35;;
79644;SDS011;69117;47.148;18.954;2024-03-02T08:26:31;12.43;;;7.53;;
79644;SDS011;69117;47.148;18.954;2024-03-02T08:29:33;15.13;;;6.93;;
79644;SDS011;69117;47.148;18.954;2024-03-02T08:32:35;14.85;;;7.03;;
79644;SDS011;69117;47.148;18.954;2024-03-02T08:35:36;12.40;;;7.22;;
79644;SDS011;69117;47.148;18.954;2024-03-02T08:38:38;12.23;;;6.00;;
79644;SDS011;69117;47.148;18.954;2024-03-02T08:41:41;13.70;;;7.50;;
79644;SDS011;69117;47.148;18.954;2024-03-02T08:44:44;14.85;;;7.45;;
79644;SDS011;69117;47.148;18.954;2024-03-02T08:47:46;12.45;;;6.57;;
79644;SDS011;69117;47.148;18.954;2024-03-02T08:50:48;17.35;;;6.97;;
79644;SDS011;69117;47.148;18.954;2024-03-02T08:53:50;14.38;;;7.55;;
79644;SDS011;69117;47.148;18.954;2024-03-02T08:56:52;15.52;;;6.55;;
79644;SDS011;69117;47.148;18.954;2024-03-02T08:59:54;12.57;;;6.15;;
79644;SDS011;69117;47.148;18.954;2024-03-02T09:02:56;12.93;;;6.82;;
79644;SDS011;69117;47.148;18.954;2024-03-02T09:05:57;12.35;;;5.95;;
79644;SDS011;69117;47.148;18.954;2024-03-02T09:08:59;13.13;;;6.35;;
79644;SDS011;69117;47.148;18.954;2024-03-02T09:12:01;13.18;;;5.95;;
79644;SDS011;69117;47.148;18.954;2024-03-02T09:15:03;10.98;;;5.07;;
79644;SDS011;69117;47.148;18.954;2024-03-02T09:18:05;13.90;;;7.30;;
79644;SDS011;69117;47.148;18.954;2024-03-02T09:21:08;11.25;;;6.40;;
79644;SDS011;69117;47.148;18.954;2024-03-02T09:24:09;13.07;;;6.15;;
79644;SDS011;69117;47.148;18.954;2024-03-02T09:27:11;10.30;;;5.15;;
79644;SDS011;69117;47.148;18.954;2024-03-02T09:30:13;14.10;;;7.60;;
79644;SDS011;69117;47.148;18.954;2024-03-02T09:33:15;14.20;;;5.90;;
79644;SDS011;69117;47.148;18.954;2024-03-02T09:36:18;10.55;;;5.85;;
79644;SDS011;69117;47.148;18.954;2024-03-02T09:39:21;13.38;;;6.78;;
79644;SDS011;69117;47.148;18.954;2024-03-02T09:42:23;13.05;;;5.97;;
79644;SDS011;69117;47.148;18.954;2024-03-02T09:45:26;12.93;;;5.97;;
79644;SDS011;69117;47.148;18.954;2024-03-02T09:48:29;9.32;;;5.20;;
79644;SDS011;69117;47.148;18.954;2024-03-02T09:51:31;10.30;;;6.18;;
79644;SDS011;69117;47.148;18.954;2024-03-02T09:54:33;12.77;;;5.63;;
79644;SDS011;69117;47.148;18.954;2024-03-02T09:57:35;9.40;;;6.00;;
79644;SDS011;69117;47.148;18.954;2024-03-02T10:00:38;8.82;;;5.18;;
79644;SDS011;69117;47.148;18.954;2024-03-02T10:03:40;10.00;;;5.97;;
79644;SDS011;69117;47.148;18.954;2024-03-02T10:06:43;11.00;;;5.53;;
79644;SDS011;69117;47.148;18.954;2024-03-02T10:09:45;10.30;;;4.97;;
79644;SDS011;69117;47.148;18.954;2024-03-02T10:12:48;7.72;;;4.50;;
79644;SDS011;69117;47.148;18.954;2024-03-02T10:16:11;11.95;;;5.35;;
79644;SDS011;69117;47.148;18.954;2024-03-02T10:19:31;8.85;;;4.82;;
79644;SDS011;69117;47.148;18.954;2024-03-02T10:22:34;10.98;;;5.90;;
79644;SDS011;69117;47.148;18.954;2024-03-02T10:25:36;8.85;;;4.43;;
79644;SDS011;69117;47.148;18.954;2024-03-02T10:28:51;10.98;;;6.50;;
79644;SDS011;69117;47.148;18.954;2024-03-02T10:32:02;8.80;;;5.22;;
79644;SDS011;69117;47.148;18.954;2024-03-02T10:35:04;9.88;;;5.00;;
79644;SDS011;69117;47.148;18.954;2024-03-02T10:38:07;8.85;;;4.78;;
79644;SDS011;69117;47.148;18.954;2024-03-02T10:41:09;9.85;;;4.57;;
79644;SDS011;69117;47.148;18.954;2024-03-02T10:44:11;11.25;;;5.40;;
79644;SDS011;69117;47.148;18.954;2024-03-02T10:47:15;8.73;;;4.65;;
79644;SDS011;69117;47.148;18.954;2024-03-02T10:50:19;9.50;;;5.40;;
79644;SDS011;69117;47.148;18.954;2024-03-02T10:53:20;7.28;;;4.20;;
79644;SDS011;69117;47.148;18.954;2024-03-02T10:56:27;9.02;;;5.25;;
79644;SDS011;69117;47.148;18.954;2024-03-02T10:59:34;8.23;;;4.50;;
79644;SDS011;69117;47.148;18.954;2024-03-02T11:02:37;6.60;;;4.13;;
79644;SDS011;69117;47.148;18.954;2024-03-02T11:05:41;8.07;;;4.03;;
79644;SDS011;69117;47.148;18.954;2024-03-02T11:08:45;5.93;;;2.95;;
79644;SDS011;69117;47.148;18.954;2024-03-02T11:11:54;9.52;;;4.80;;
79644;SDS011;69117;47.148;18.954;2024-03-02T11:15:01;6.60;;;4.22;;
79644;SDS011;69117;47.148;18.954;2024-03-02T11:18:06;6.45;;;3.67;;
79644;SDS011;69117;47.148;18.954;2024-03-02T11:21:10;6.90;;;2.97;;
79644;SDS011;69117;47.148;18.954;2024-03-02T11:24:37;4.80;;;3.50;;
79644;SDS011;69117;47.148;18.954;2024-03-02T11:33:48;6.13;;;3.33;;
79644;SDS011;69117;47.148;18.954;2024-03-02T11:36:50;9.00;;;4.07;;
79644;SDS011;69117;47.148;18.954;2024-03-02T11:39:52;5.93;;;2.42;;
79644;SDS011;69117;47.148;18.954;2024-03-02T11:42:54;6.40;;;3.28;;
79644;SDS011;69117;47.148;18.954;2024-03-02T11:46:00;6.47;;;4.07;;
79644;SDS011;69117;47.148;18.954;2024-03-02T11:49:06;6.82;;;3.80;;
79644;SDS011;69117;47.148;18.954;2024-03-02T11:52:09;7.13;;;3.28;;
79644;SDS011;69117;47.148;18.954;2024-03-02T11:55:12;7.43;;;3.92;;
79644;SDS011;69117;47.148;18.954;2024-03-02T11:58:15;6.75;;;3.45;;
79644;SDS011;69117;47.148;18.954;2024-03-02T12:01:19;5.38;;;3.28;;
79644;SDS011;69117;47.148;18.954;2024-03-02T12:04:21;8.43;;;4.25;;
79644;SDS011;69117;47.148;18.954;2024-03-02T12:07:23;7.72;;;4.20;;
79644;SDS011;69117;47.148;18.954;2024-03-02T12:10:26;5.57;;;3.58;;
79644;SDS011;69117;47.148;18.954;2024-03-02T12:13:28;8.45;;;5.10;;
79644;SDS011;69117;47.148;18.954;2024-03-02T12:16:31;8.02;;;3.67;;
79644;SDS011;69117;47.148;18.954;2024-03-02T12:19:33;5.72;;;4.10;;
79644;SDS011;69117;47.148;18.954;2024-03-02T12:22:35;10.40;;;5.50;;
79644;SDS011;69117;47.148;18.954;2024-03-02T12:25:36;10.98;;;5.57;;
79644;SDS011;69117;47.148;18.954;2024-03-02T12:28:38;10.57;;;5.47;;
79644;SDS011;69117;47.148;18.954;2024-03-02T12:31:40;8.98;;;4.53;;
79644;SDS011;69117;47.148;18.954;2024-03-02T12:34:46;9.60;;;4.97;;
79644;SDS011;69117;47.148;18.954;2024-03-02T12:37:48;12.63;;;4.53;;
79644;SDS011;69117;47.148;18.954;2024-03-02T12:40:51;8.40;;;4.22;;
79644;SDS011;69117;47.148;18.954;2024-03-02T12:43:53;9.77;;;5.07;;
79644;SDS011;69117;47.148;18.954;2024-03-02T12:46:56;10.18;;;5.35;;
79644;SDS011;69117;47.148;18.954;2024-03-02T12:50:03;11.70;;;6.05;;
79644;SDS011;69117;47.148;18.954;2024-03-02T12:53:06;11.18;;;6.65;;
79644;SDS011;69117;47.148;18.954;2024-03-02T12:56:07;10.20;;;6.20;;
79644;SDS011;69117;47.148;18.954;2024-03-02T12:59:09;16.20;;;7.32;;
79644;SDS011;69117;47.148;18.954;2024-03-02T13:02:19;12.75;;;6.30;;
79644;SDS011;69117;47.148;18.954;2024-03-02T13:05:21;12.13;;;6.88;;
79644;SDS011;69117;47.148;18.954;2024-03-02T13:08:23;12.13;;;5.78;;
79644;SDS011;69117;47.148;18.954;2024-03-02T13:11:24;17.15;;;8.88;;
79644;SDS011;69117;47.148;18.954;2024-03-02T13:14:27;16.70;;;8.18;;
79644;SDS011;69117;47.148;18.954;2024-03-02T13:17:28;18.38;;;7.45;;
79644;SDS011;69117;47.148;18.954;2024-03-02T13:20:36;17.95;;;8.88;;
79644;SDS011;69117;47.148;18.954;2024-03-02T13:23:38;15.82;;;7.60;;
79644;SDS011;69117;47.148;18.954;2024-03-02T13:26:40;14.13;;;7.85;;
79644;SDS011;69117;47.148;18.954;2024-03-02T13:29:42;18.52;;;7.63;;
79644;SDS011;69117;47.148;18.954;2024-03-02T13:32:43;16.63;;;9.32;;
79644;SDS011;69117;47.148;18.954;2024-03-02T13:35:45;19.10;;;8.15;;
79644;SDS011;69117;47.148;18.954;2024-03-02T13:38:47;24.42;;;11.20;;
79644;SDS011;69117;47.148;18.954;2024-03-02T13:41:49;17.25;;;9.32;;
79644;SDS011;69117;47.148;18.954;2024-03-02T13:44:54;20.77;;;8.65;;
79644;SDS011;69117;47.148;18.954;2024-03-02T13:47:56;14.90;;;7.05;;
79644;SDS011;69117;47.148;18.954;2024-03-02T13:50:58;20.60;;;8.02;;
79644;SDS011;69117;47.148;18.954;2024-03-02T13:53:59;21.98;;;9.30;;
79644;SDS011;69117;47.148;18.954;2024-03-02T13:57:01;21.08;;;7.35;;
79644;SDS011;69117;47.148;18.954;2024-03-02T14:00:04;21.13;;;10.10;;
79644;SDS011;69117;47.148;18.954;2024-03-02T14:03:12;20.38;;;10.20;;
79644;SDS011;69117;47.148;18.954;2024-03-02T14:06:13;21.52;;;9.93;;
79644;SDS011;69117;47.148;18.954;2024-03-02T14:09:15;19.90;;;8.50;;
79644;SDS011;69117;47.148;18.954;2024-03-02T14:12:17;20.00;;;9.20;;
79644;SDS011;69117;47.148;18.954;2024-03-02T14:15:19;22.50;;;9.13;;
79644;SDS011;69117;47.148;18.954;2024-03-02T14:18:22;19.73;;;10.45;;
79644;SDS011;69117;47.148;18.954;2024-03-02T14:21:24;20.15;;;9.90;;
79644;SDS011;69117;47.148;18.954;2024-03-02T14:24:26;25.13;;;10.05;;
79644;SDS011;69117;47.148;18.954;2024-03-02T14:27:29;21.65;;;10.20;;
79644;SDS011;69117;47.148;18.954;2024-03-02T14:30:51;27.48;;;12.68;;
79644;SDS011;69117;47.148;18.954;2024-03-02T14:33:53;29.70;;;11.80;;
79644;SDS011;69117;47.148;18.954;2024-03-02T14:36:55;23.33;;;10.18;;
79644;SDS011;69117;47.148;18.954;2024-03-02T14:39:57;26.33;;;11.10;;
79644;SDS011;69117;47.148;18.954;2024-03-02T14:42:59;27.48;;;11.13;;
79644;SDS011;69117;47.148;18.954;2024-03-02T14:46:01;26.40;;;11.95;;
79644;SDS011;69117;47.148;18.954;2024-03-02T14:49:04;25.13;;;11.05;;
79644;SDS011;69117;47.148;18.954;2024-03-02T14:52:06;26.55;;;10.75;;
79644;SDS011;69117;47.148;18.954;2024-03-02T14:55:09;23.08;;;11.90;;
79644;SDS011;69117;47.148;18.954;2024-03-02T14:58:11;31.60;;;13.77;;
79644;SDS011;69117;47.148;18.954;2024-03-02T15:01:13;25.77;;;12.40;;
79644;SDS011;69117;47.148;18.954;2024-03-02T15:04:15;24.75;;;10.40;;
79644;SDS011;69117;47.148;18.954;2024-03-02T15:07:22;26.20;;;11.95;;
79644;SDS011;69117;47.148;18.954;2024-03-02T15:10:23;29.27;;;11.98;;
79644;SDS011;69117;47.148;18.954;2024-03-02T15:13:25;25.77;;;12.57;;
79644;SDS011;69117;47.148;18.954;2024-03-02T15:16:27;28.10;;;12.88;;
79644;SDS011;69117;47.148;18.954;2024-03-02T15:19:30;25.75;;;12.63;;
79644;SDS011;69117;47.148;18.954;2024-03-02T15:22:32;34.03;;;12.13;;
79644;SDS011;69117;47.148;18.954;2024-03-02T15:25:33;27.33;;;12.20;;
79644;SDS011;69117;47.148;18.954;2024-03-02T15:28:35;28.65;;;13.27;;
79644;SDS011;69117;47.148;18.954;2024-03-02T15:31:37;20.63;;;10.07;;
79644;SDS011;69117;47.148;18.954;2024-03-02T15:34:38;26.25;;;10.93;;
79644;SDS011;69117;47.148;18.954;2024-03-02T15:37:40;28.38;;;11.63;;
79644;SDS011;69117;47.148;18.954;2024-03-02T15:40:42;22.88;;;10.30;;
79644;SDS011;69117;47.148;18.954;2024-03-02T15:43:43;28.65;;;13.25;;
79644;SDS011;69117;47.148;18.954;2024-03-02T15:46:45;22.13;;;9.90;;
79644;SDS011;69117;47.148;18.954;2024-03-02T15:49:47;29.45;;;12.18;;
79644;SDS011;69117;47.148;18.954;2024-03-02T15:52:50;27.30;;;11.90;;
79644;SDS011;69117;47.148;18.954;2024-03-02T15:55:53;25.17;;;10.60;;
79644;SDS011;69117;47.148;18.954;2024-03-02T15:58:54;29.30;;;11.55;;
79644;SDS011;69117;47.148;18.954;2024-03-02T16:01:56;33.92;;;12.82;;
79644;SDS011;69117;47.148;18.954;2024-03-02T16:04:59;26.58;;;12.68;;
79644;SDS011;69117;47.148;18.954;2024-03-02T16:08:01;22.60;;;11.88;;
79644;SDS011;69117;47.148;18.954;2024-03-02T16:11:03;32.75;;;12.88;;
79644;SDS011;69117;47.148;18.954;2024-03-02T16:14:05;26.58;;;13.18;;
79644;SDS011;69117;47.148;18.954;2024-03-02T16:17:07;29.50;;;12.98;;
79644;SDS011;69117;47.148;18.954;2024-03-02T16:20:10;30.77;;;13.07;;
79644;SDS011;69117;47.148;18.954;2024-03-02T16:23:12;32.90;;;13.32;;
79644;SDS011;69117;47.148;18.954;2024-03-02T16:26:14;33.10;;;13.13;;
79644;SDS011;69117;47.148;18.954;2024-03-02T16:29:16;31.40;;;13.93;;
79644;SDS011;69117;47.148;18.954;2024-03-02T16:32:17;27.20;;;13.95;;
79644;SDS011;69117;47.148;18.954;2024-03-02T16:35:19;26.15;;;11.07;;
79644;SDS011;69117;47.148;18.954;2024-03-02T16:38:21;26.92;;;13.20;;
79644;SDS011;69117;47.148;18.954;2024-03-02T16:41:22;28.02;;;12.40;;
79644;SDS011;69117;47.148;18.954;2024-03-02T16:44:24;26.95;;;10.68;;
79644;SDS011;69117;47.148;18.954;2024-03-02T16:47:25;25.77;;;11.20;;
79644;SDS011;69117;47.148;18.954;2024-03-02T16:50:27;23.15;;;10.45;;
79644;SDS011;69117;47.148;18.954;2024-03-02T16:53:29;25.33;;;10.60;;
79644;SDS011;69117;47.148;18.954;2024-03-02T16:56:40;28.65;;;11.38;;
79644;SDS011;69117;47.148;18.954;2024-03-02T16:59:43;20.30;;;10.23;;
79644;SDS011;69117;47.148;18.954;2024-03-02T17:02:45;21.27;;;9.43;;
79644;SDS011;69117;47.148;18.954;2024-03-02T17:05:47;22.50;;;10.73;;
79644;SDS011;69117;47.148;18.954;2024-03-02T17:08:49;20.95;;;10.60;;
79644;SDS011;69117;47.148;18.954;2024-03-02T17:11:50;25.52;;;9.48;;
79644;SDS011;69117;47.148;18.954;2024-03-02T17:14:52;18.33;;;8.73;;
79644;SDS011;69117;47.148;18.954;2024-03-02T17:17:54;21.00;;;8.73;;
79644;SDS011;69117;47.148;18.954;2024-03-02T17:20:55;23.52;;;9.77;;
79644;SDS011;69117;47.148;18.954;2024-03-02T17:23:57;15.30;;;9.15;;
79644;SDS011;69117;47.148;18.954;2024-03-02T17:26:59;23.40;;;9.70;;
79644;SDS011;69117;47.148;18.954;2024-03-02T17:30:01;18.60;;;10.10;;
79644;SDS011;69117;47.148;18.954;2024-03-02T17:33:03;20.27;;;8.35;;
79644;SDS011;69117;47.148;18.954;2024-03-02T17:36:05;21.45;;;10.45;;
79644;SDS011;69117;47.148;18.954;2024-03-02T17:39:06;21.13;;;10.20;;
79644;SDS011;69117;47.148;18.954;2024-03-02T17:42:08;12.30;;;6.82;;
79644;SDS011;69117;47.148;18.954;2024-03-02T17:45:10;20.35;;;10.63;;
79644;SDS011;69117;47.148;18.954;2024-03-02T17:48:11;20.88;;;9.23;;
79644;SDS011;69117;47.148;18.954;2024-03-02T17:51:13;16.13;;;8.07;;
79644;SDS011;69117;47.148;18.954;2024-03-02T17:54:16;16.00;;;7.22;;